sensor_id;sensor_type;location;lat;lon;timestamp;pressure;altitude;pressure_sealevel;temperature;humidity
65384;BME280;51986;52.788;41.368;2024-03-23T00:55:25;99112.03;;;-0.98;46.94
65384;BME280;51986;52.788;41.368;2024-03-23T00:57:51;99124.13;;;-1.02;47.98
65384;BME280;51986;52.788;41.368;2024-03-23T01:00:17;99110.41;;;-1.03;47.19
65384;BME280;51986;52.788;41.368;2024-03-23T01:02:43;99080.69;;;-1.17;47.78
65384;BME280;51986;52.788;41.368;2024-03-23T01:05:09;99092.38;;;-1.11;47.51
65384;BME280;51986;52.788;41.368;2024-03-23T01:07:34;99101.50;;;-1.26;48.04
65384;BME280;51986;52.788;41.368;2024-03-23T01:10:00;99065.56;;;-1.28;48.32
65384;BME280;51986;52.788;41.368;2024-03-23T01:12:26;99090.63;;;-1.19;48.19
65384;BME280;51986;52.788;41.368;2024-03-23T01:14:52;99075.91;;;-1.28;48.03
65384;BME280;51986;52.788;41.368;2024-03-23T01:17:18;99090.81;;;-1.25;49.04
65384;BME280;51986;52.788;41.368;2024-03-23T01:19:44;99096.31;;;-1.26;49.42
65384;BME280;51986;52.788;41.368;2024-03-23T01:22:10;99082.09;;;-1.20;49.44
65384;BME280;51986;52.788;41.368;2024-03-23T01:24:36;99096.91;;;-1.08;48.73
65384;BME280;51986;52.788;41.368;2024-03-23T01:27:01;99073.59;;;-1.20;49.26
65384;BME280;51986;52.788;41.368;2024-03-23T01:29:27;99068.84;;;-1.18;49.37
65384;BME280;51986;52.788;41.368;2024-03-23T01:31:53;99071.34;;;-1.10;49.06
65384;BME280;51986;52.788;41.368;2024-03-23T01:34:19;99062.50;;;-1.09;49.99
65384;BME280;51986;52.788;41.368;2024-03-23T01:36:45;99078.84;;;-0.96;49.58
65384;BME280;51986;52.788;41.368;2024-03-23T01:39:11;99080.22;;;-0.99;49.28
65384;BME280;51986;52.788;41.368;2024-03-23T01:41:36;99039.44;;;-1.02;49.57
65384;BME280;51986;52.788;41.368;2024-03-23T01:44:05;99062.78;;;-0.89;49.82
65384;BME280;51986;52.788;41.368;2024-03-23T01:46:31;99048.81;;;-1.09;50.31
65384;BME280;51986;52.788;41.368;2024-03-23T01:48:57;99021.28;;;-1.14;50.06
65384;BME280;51986;52.788;41.368;2024-03-23T01:51:23;99041.66;;;-1.12;50.39
65384;BME280;51986;52.788;41.368;2024-03-23T01:53:49;99009.13;;;-1.01;50.38
65384;BME280;51986;52.788;41.368;2024-03-23T01:56:15;99025.84;;;-1.11;50.91
65384;BME280;51986;52.788;41.368;2024-03-23T01:58:41;99021.22;;;-0.93;50.68
65384;BME280;51986;52.788;41.368;2024-03-23T02:01:07;99008.63;;;-0.82;50.43
65384;BME280;51986;52.788;41.368;2024-03-23T02:03:33;99019.50;;;-0.89;50.49
65384;BME280;51986;52.788;41.368;2024-03-23T02:05:59;99004.38;;;-1.11;50.61
65384;BME280;51986;52.788;41.368;2024-03-23T02:08:25;99014.63;;;-1.03;50.47
65384;BME280;51986;52.788;41.368;2024-03-23T02:10:51;98997.16;;;-1.06;50.61
65384;BME280;51986;52.788;41.368;2024-03-23T02:13:18;98991.53;;;-1.08;51.26
65384;BME280;51986;52.788;41.368;2024-03-23T02:15:44;99017.66;;;-1.01;51.29
65384;BME280;51986;52.788;41.368;2024-03-23T02:18:11;99005.47;;;-1.00;52.03
65384;BME280;51986;52.788;41.368;2024-03-23T02:20:37;99000.63;;;-1.02;52.17
65384;BME280;51986;52.788;41.368;2024-03-23T02:23:13;99005.03;;;-1.02;51.41
65384;BME280;51986;52.788;41.368;2024-03-23T02:25:39;98993.06;;;-1.07;52.09
65384;BME280;51986;52.788;41.368;2024-03-23T02:28:05;98997.91;;;-1.05;52.51
65384;BME280;51986;52.788;41.368;2024-03-23T02:30:31;99003.84;;;-1.05;52.44
65384;BME280;51986;52.788;41.368;2024-03-23T02:32:57;98999.44;;;-0.92;52.10
65384;BME280;51986;52.788;41.368;2024-03-23T02:35:23;99018.16;;;-1.07;52.61
65384;BME280;51986;52.788;41.368;2024-03-23T02:37:49;98992.59;;;-1.09;52.81
65384;BME280;51986;52.788;41.368;2024-03-23T02:40:15;99009.50;;;-1.23;53.07
65384;BME280;51986;52.788;41.368;2024-03-23T02:42:41;99008.19;;;-1.30;53.78
65384;BME280;51986;52.788;41.368;2024-03-23T02:45:08;98983.28;;;-1.22;52.88
65384;BME280;51986;52.788;41.368;2024-03-23T02:47:34;98995.47;;;-1.35;53.36
65384;BME280;51986;52.788;41.368;2024-03-23T02:50:00;99011.22;;;-1.28;53.48
65384;BME280;51986;52.788;41.368;2024-03-23T02:52:26;99003.84;;;-1.38;53.38
65384;BME280;51986;52.788;41.368;2024-03-23T02:54:52;99022.03;;;-1.26;52.74
65384;BME280;51986;52.788;41.368;2024-03-23T02:57:18;99018.16;;;-1.19;52.86
65384;BME280;51986;52.788;41.368;2024-03-23T02:59:44;99026.50;;;-1.35;54.07
65384;BME280;51986;52.788;41.368;2024-03-23T03:02:11;99004.00;;;-1.55;53.39
65384;BME280;51986;52.788;41.368;2024-03-23T03:04:37;99012.53;;;-1.76;54.56
65384;BME280;51986;52.788;41.368;2024-03-23T03:07:03;99015.91;;;-1.84;54.32
65384;BME280;51986;52.788;41.368;2024-03-23T03:09:29;99014.59;;;-1.90;54.91
65384;BME280;51986;52.788;41.368;2024-03-23T03:11:54;99008.44;;;-1.77;54.63
65384;BME280;51986;52.788;41.368;2024-03-23T03:14:20;99016.19;;;-1.77;54.96
65384;BME280;51986;52.788;41.368;2024-03-23T03:16:46;99014.34;;;-1.55;54.36
65384;BME280;51986;52.788;41.368;2024-03-23T03:19:12;98987.56;;;-1.38;54.14
65384;BME280;51986;52.788;41.368;2024-03-23T03:21:38;98986.63;;;-1.34;53.70
65384;BME280;51986;52.788;41.368;2024-03-23T03:24:06;99004.06;;;-1.43;54.30
65384;BME280;51986;52.788;41.368;2024-03-23T03:26:32;98981.19;;;-1.41;53.72
65384;BME280;51986;52.788;41.368;2024-03-23T03:28:58;98984.16;;;-1.30;53.77
65384;BME280;51986;52.788;41.368;2024-03-23T03:31:24;98994.28;;;-0.92;53.18
65384;BME280;51986;52.788;41.368;2024-03-23T03:33:50;99001.31;;;-0.68;52.49
65384;BME280;51986;52.788;41.368;2024-03-23T03:36:16;98997.53;;;-0.83;52.76
65384;BME280;51986;52.788;41.368;2024-03-23T03:38:42;98978.06;;;-0.89;53.05
65384;BME280;51986;52.788;41.368;2024-03-23T03:41:08;98993.31;;;-0.87;53.38
65384;BME280;51986;52.788;41.368;2024-03-23T03:43:33;98981.13;;;-0.87;54.08
65384;BME280;51986;52.788;41.368;2024-03-23T03:46:00;98973.97;;;-0.90;53.77
65384;BME280;51986;52.788;41.368;2024-03-23T03:48:27;98983.16;;;-0.80;53.62
65384;BME280;51986;52.788;41.368;2024-03-23T03:50:53;98968.69;;;-0.69;53.24
65384;BME280;51986;52.788;41.368;2024-03-23T03:53:19;98963.41;;;-0.60;53.53
65384;BME280;51986;52.788;41.368;2024-03-23T03:55:45;98947.19;;;-0.45;53.02
65384;BME280;51986;52.788;41.368;2024-03-23T03:58:11;98966.53;;;-0.42;52.81
65384;BME280;51986;52.788;41.368;2024-03-23T04:00:37;98958.00;;;-0.43;52.96
65384;BME280;51986;52.788;41.368;2024-03-23T04:03:03;98959.06;;;-0.19;53.37
65384;BME280;51986;52.788;41.368;2024-03-23T04:05:29;98963.91;;;-0.06;52.77
65384;BME280;51986;52.788;41.368;2024-03-23T04:07:55;98978.66;;;0.06;52.63
65384;BME280;51986;52.788;41.368;2024-03-23T04:10:21;98984.19;;;0.04;52.97
65384;BME280;51986;52.788;41.368;2024-03-23T04:12:47;98930.72;;;-0.00;52.91
65384;BME280;51986;52.788;41.368;2024-03-23T04:15:14;98954.19;;;0.19;53.03
65384;BME280;51986;52.788;41.368;2024-03-23T04:17:40;98943.13;;;0.50;51.92
65384;BME280;51986;52.788;41.368;2024-03-23T04:20:06;98945.47;;;0.55;51.63
65384;BME280;51986;52.788;41.368;2024-03-23T04:22:32;98964.34;;;0.68;51.84
65384;BME280;51986;52.788;41.368;2024-03-23T04:24:58;98953.81;;;0.61;52.08
65384;BME280;51986;52.788;41.368;2024-03-23T04:27:24;98955.72;;;0.64;52.15
65384;BME280;51986;52.788;41.368;2024-03-23T04:30:06;98938.88;;;0.58;52.38
65384;BME280;51986;52.788;41.368;2024-03-23T04:32:32;98967.59;;;0.65;52.26
65384;BME280;51986;52.788;41.368;2024-03-23T04:34:58;98949.03;;;0.63;51.58
65384;BME280;51986;52.788;41.368;2024-03-23T04:37:24;98971.91;;;0.89;51.83
65384;BME280;51986;52.788;41.368;2024-03-23T04:39:50;98953.81;;;0.93;51.43
65384;BME280;51986;52.788;41.368;2024-03-23T04:42:16;98950.88;;;0.78;51.57
65384;BME280;51986;52.788;41.368;2024-03-23T04:44:42;98949.38;;;0.62;52.21
65384;BME280;51986;52.788;41.368;2024-03-23T04:47:08;98961.41;;;0.70;51.45
65384;BME280;51986;52.788;41.368;2024-03-23T04:49:38;98945.78;;;0.66;51.93
65384;BME280;51986;52.788;41.368;2024-03-23T04:52:04;98940.66;;;0.70;51.62
65384;BME280;51986;52.788;41.368;2024-03-23T04:54:30;98953.22;;;0.68;51.99
65384;BME280;51986;52.788;41.368;2024-03-23T04:56:56;98939.59;;;0.87;51.61
65384;BME280;51986;52.788;41.368;2024-03-23T04:59:22;98940.00;;;0.73;51.83
65384;BME280;51986;52.788;41.368;2024-03-23T05:01:48;98934.81;;;0.73;52.01
65384;BME280;51986;52.788;41.368;2024-03-23T05:04:15;98937.56;;;0.64;52.51
65384;BME280;51986;52.788;41.368;2024-03-23T05:06:41;98942.25;;;0.74;52.13
65384;BME280;51986;52.788;41.368;2024-03-23T05:09:07;98942.56;;;0.57;52.26
65384;BME280;51986;52.788;41.368;2024-03-23T05:11:33;98928.19;;;1.07;51.21
65384;BME280;51986;52.788;41.368;2024-03-23T05:14:00;98932.09;;;1.32;51.03
65384;BME280;51986;52.788;41.368;2024-03-23T05:16:26;98939.06;;;1.28;51.30
65384;BME280;51986;52.788;41.368;2024-03-23T05:18:52;98921.53;;;1.76;50.19
65384;BME280;51986;52.788;41.368;2024-03-23T05:21:18;98943.22;;;1.84;49.87
65384;BME280;51986;52.788;41.368;2024-03-23T05:23:44;98934.66;;;2.03;49.55
65384;BME280;51986;52.788;41.368;2024-03-23T05:26:10;98953.66;;;1.68;50.08
65384;BME280;51986;52.788;41.368;2024-03-23T05:28:36;98943.81;;;1.77;50.33
65384;BME280;51986;52.788;41.368;2024-03-23T05:31:02;98928.09;;;1.90;49.78
65384;BME280;51986;52.788;41.368;2024-03-23T05:33:28;98954.25;;;1.97;49.96
65384;BME280;51986;52.788;41.368;2024-03-23T05:35:58;98929.94;;;1.89;50.44
65384;BME280;51986;52.788;41.368;2024-03-23T05:38:25;98953.06;;;2.14;50.11
65384;BME280;51986;52.788;41.368;2024-03-23T05:40:58;98934.38;;;1.89;50.68
65384;BME280;51986;52.788;41.368;2024-03-23T05:43:25;98933.50;;;2.39;49.67
65384;BME280;51986;52.788;41.368;2024-03-23T05:48:20;98897.50;;;2.45;49.12
65384;BME280;51986;52.788;41.368;2024-03-23T05:50:46;98924.72;;;2.70;48.19
65384;BME280;51986;52.788;41.368;2024-03-23T05:53:12;98913.19;;;2.71;48.74
65384;BME280;51986;52.788;41.368;2024-03-23T05:55:37;98921.44;;;3.00;48.04
65384;BME280;51986;52.788;41.368;2024-03-23T05:58:04;98925.97;;;3.03;47.55
65384;BME280;51986;52.788;41.368;2024-03-23T06:00:29;98922.09;;;3.16;47.99
65384;BME280;51986;52.788;41.368;2024-03-23T06:02:55;98920.38;;;3.27;47.33
65384;BME280;51986;52.788;41.368;2024-03-23T06:05:21;98934.25;;;3.61;47.04
65384;BME280;51986;52.788;41.368;2024-03-23T06:07:47;98919.88;;;3.45;46.77
65384;BME280;51986;52.788;41.368;2024-03-23T06:10:13;98907.72;;;3.56;47.18
65384;BME280;51986;52.788;41.368;2024-03-23T06:12:39;98894.06;;;3.66;46.93
65384;BME280;51986;52.788;41.368;2024-03-23T06:15:05;98889.69;;;3.44;47.16
65384;BME280;51986;52.788;41.368;2024-03-23T06:17:32;98880.31;;;3.69;46.61
65384;BME280;51986;52.788;41.368;2024-03-23T06:19:57;98896.44;;;3.48;47.31
65384;BME280;51986;52.788;41.368;2024-03-23T06:22:23;98914.28;;;3.73;47.00
65384;BME280;51986;52.788;41.368;2024-03-23T06:24:49;98898.22;;;4.04;46.77
65384;BME280;51986;52.788;41.368;2024-03-23T06:27:15;98906.41;;;4.36;46.34
65384;BME280;51986;52.788;41.368;2024-03-23T06:29:41;98900.09;;;4.41;46.11
65384;BME280;51986;52.788;41.368;2024-03-23T06:32:07;98895.69;;;4.49;45.76
65384;BME280;51986;52.788;41.368;2024-03-23T06:34:33;98892.38;;;4.52;45.20
65384;BME280;51986;52.788;41.368;2024-03-23T06:36:59;98881.28;;;5.13;44.34
65384;BME280;51986;52.788;41.368;2024-03-23T06:39:25;98900.72;;;5.19;44.32
65384;BME280;51986;52.788;41.368;2024-03-23T06:41:52;98875.91;;;4.96;44.86
65384;BME280;51986;52.788;41.368;2024-03-23T06:44:19;98881.78;;;4.78;45.23
65384;BME280;51986;52.788;41.368;2024-03-23T06:46:45;98882.19;;;4.84;45.75
65384;BME280;51986;52.788;41.368;2024-03-23T06:49:11;98872.28;;;5.07;44.84
65384;BME280;51986;52.788;41.368;2024-03-23T06:51:37;98884.97;;;5.09;44.92
65384;BME280;51986;52.788;41.368;2024-03-23T06:54:04;98875.66;;;5.15;45.27
65384;BME280;51986;52.788;41.368;2024-03-23T06:56:30;98872.41;;;5.32;45.16
65384;BME280;51986;52.788;41.368;2024-03-23T06:58:57;98877.75;;;5.54;44.95
65384;BME280;51986;52.788;41.368;2024-03-23T07:01:23;98873.38;;;5.86;43.72
65384;BME280;51986;52.788;41.368;2024-03-23T07:03:48;98858.84;;;6.03;43.66
65384;BME280;51986;52.788;41.368;2024-03-23T07:06:14;98870.47;;;6.20;43.45
65384;BME280;51986;52.788;41.368;2024-03-23T07:08:40;98862.25;;;6.18;43.54
65384;BME280;51986;52.788;41.368;2024-03-23T07:11:06;98842.41;;;6.03;42.88
65384;BME280;51986;52.788;41.368;2024-03-23T07:13:32;98862.22;;;6.11;43.57
65384;BME280;51986;52.788;41.368;2024-03-23T07:15:58;98853.66;;;6.35;43.15
65384;BME280;51986;52.788;41.368;2024-03-23T07:18:24;98866.75;;;6.39;42.59
65384;BME280;51986;52.788;41.368;2024-03-23T07:20:56;98884.72;;;6.22;42.67
65384;BME280;51986;52.788;41.368;2024-03-23T07:23:24;98819.59;;;6.25;42.53
65384;BME280;51986;52.788;41.368;2024-03-23T07:25:57;98865.66;;;6.61;42.54
65384;BME280;51986;52.788;41.368;2024-03-23T07:28:23;98837.94;;;6.35;42.87
65384;BME280;51986;52.788;41.368;2024-03-23T07:31:06;98866.78;;;6.60;42.90
65384;BME280;51986;52.788;41.368;2024-03-23T07:33:33;98878.00;;;6.57;42.38
65384;BME280;51986;52.788;41.368;2024-03-23T07:35:59;98865.28;;;6.70;42.12
65384;BME280;51986;52.788;41.368;2024-03-23T07:38:27;98861.16;;;6.76;42.56
65384;BME280;51986;52.788;41.368;2024-03-23T07:41:05;98847.28;;;7.01;41.41
65384;BME280;51986;52.788;41.368;2024-03-23T07:43:32;98838.69;;;6.86;41.57
65384;BME280;51986;52.788;41.368;2024-03-23T07:45:58;98847.25;;;7.15;41.38
65384;BME280;51986;52.788;41.368;2024-03-23T07:48:25;98837.91;;;7.07;41.48
65384;BME280;51986;52.788;41.368;2024-03-23T07:53:27;98840.44;;;7.35;41.25
65384;BME280;51986;52.788;41.368;2024-03-23T07:55:59;98846.66;;;7.77;40.32
65384;BME280;51986;52.788;41.368;2024-03-23T07:58:26;98835.56;;;8.18;40.28
65384;BME280;51986;52.788;41.368;2024-03-23T08:00:55;98837.03;;;8.19;39.88
65384;BME280;51986;52.788;41.368;2024-03-23T08:03:22;98820.03;;;8.34;39.30
65384;BME280;51986;52.788;41.368;2024-03-23T08:05:48;98858.31;;;8.35;39.55
65384;BME280;51986;52.788;41.368;2024-03-23T08:08:14;98812.28;;;8.16;40.19
65384;BME280;51986;52.788;41.368;2024-03-23T08:10:52;98817.31;;;8.45;39.50
65384;BME280;51986;52.788;41.368;2024-03-23T08:13:20;98723.66;;;8.24;39.67
65384;BME280;51986;52.788;41.368;2024-03-23T08:15:46;98817.44;;;8.27;39.59
65384;BME280;51986;52.788;41.368;2024-03-23T08:18:12;98808.66;;;8.51;39.46
65384;BME280;51986;52.788;41.368;2024-03-23T08:20:39;98767.47;;;8.79;38.72
65384;BME280;51986;52.788;41.368;2024-03-23T08:23:06;98807.47;;;8.56;39.23
65384;BME280;51986;52.788;41.368;2024-03-23T08:25:32;98790.88;;;8.63;39.69
65384;BME280;51986;52.788;41.368;2024-03-23T08:27:58;98750.22;;;8.33;39.43
65384;BME280;51986;52.788;41.368;2024-03-23T08:30:25;98774.19;;;8.39;40.20
65384;BME280;51986;52.788;41.368;2024-03-23T08:32:51;98791.25;;;8.20;40.10
65384;BME280;51986;52.788;41.368;2024-03-23T08:35:17;98772.41;;;8.29;39.76
65384;BME280;51986;52.788;41.368;2024-03-23T08:37:43;98772.03;;;8.30;39.76
65384;BME280;51986;52.788;41.368;2024-03-23T08:40:09;98786.63;;;8.35;40.56
65384;BME280;51986;52.788;41.368;2024-03-23T08:42:35;98764.56;;;8.21;40.25
65384;BME280;51986;52.788;41.368;2024-03-23T08:45:01;98779.13;;;8.33;40.12
65384;BME280;51986;52.788;41.368;2024-03-23T08:47:27;98777.78;;;8.14;40.30
65384;BME280;51986;52.788;41.368;2024-03-23T08:49:53;98768.97;;;8.35;40.49
65384;BME280;51986;52.788;41.368;2024-03-23T08:52:19;98764.84;;;8.34;40.22
65384;BME280;51986;52.788;41.368;2024-03-23T08:54:45;98780.22;;;8.36;40.32
65384;BME280;51986;52.788;41.368;2024-03-23T08:57:10;98761.59;;;8.19;40.05
65384;BME280;51986;52.788;41.368;2024-03-23T08:59:37;98788.59;;;8.23;40.43
65384;BME280;51986;52.788;41.368;2024-03-23T09:02:03;98773.91;;;8.30;41.05
65384;BME280;51986;52.788;41.368;2024-03-23T09:04:29;98803.09;;;8.42;40.74
65384;BME280;51986;52.788;41.368;2024-03-23T09:06:55;98791.56;;;8.29;41.16
65384;BME280;51986;52.788;41.368;2024-03-23T09:09:21;98764.97;;;8.20;40.65
65384;BME280;51986;52.788;41.368;2024-03-23T09:11:47;98781.53;;;8.58;40.33
65384;BME280;51986;52.788;41.368;2024-03-23T09:14:13;98771.91;;;8.44;40.64
65384;BME280;51986;52.788;41.368;2024-03-23T09:16:39;98771.19;;;8.40;40.45
65384;BME280;51986;52.788;41.368;2024-03-23T09:19:05;98794.06;;;8.43;40.37
65384;BME280;51986;52.788;41.368;2024-03-23T09:21:31;98775.69;;;8.40;40.86
65384;BME280;51986;52.788;41.368;2024-03-23T09:23:57;98768.81;;;8.53;40.62
65384;BME280;51986;52.788;41.368;2024-03-23T09:26:23;98765.16;;;8.43;41.02
65384;BME280;51986;52.788;41.368;2024-03-23T09:28:49;98734.59;;;8.19;40.92
65384;BME280;51986;52.788;41.368;2024-03-23T09:31:15;98764.41;;;8.43;41.14
65384;BME280;51986;52.788;41.368;2024-03-23T09:33:41;98743.31;;;8.46;40.96
65384;BME280;51986;52.788;41.368;2024-03-23T09:36:08;98716.50;;;8.24;40.84
65384;BME280;51986;52.788;41.368;2024-03-23T09:38:34;98761.81;;;8.39;41.12
65384;BME280;51986;52.788;41.368;2024-03-23T09:41:00;98639.28;;;7.73;41.38
65384;BME280;51986;52.788;41.368;2024-03-23T09:43:26;98737.88;;;8.26;41.15
65384;BME280;51986;52.788;41.368;2024-03-23T09:45:52;98738.31;;;8.63;40.69
65384;BME280;51986;52.788;41.368;2024-03-23T09:48:19;98716.50;;;8.28;41.73
65384;BME280;51986;52.788;41.368;2024-03-23T09:50:45;98738.84;;;8.47;41.86
65384;BME280;51986;52.788;41.368;2024-03-23T09:53:13;98736.25;;;8.43;41.80
65384;BME280;51986;52.788;41.368;2024-03-23T09:55:41;98729.16;;;8.78;40.63
65384;BME280;51986;52.788;41.368;2024-03-23T09:58:08;98736.03;;;8.65;40.14
65384;BME280;51986;52.788;41.368;2024-03-23T10:00:38;98734.91;;;8.66;40.95
65384;BME280;51986;52.788;41.368;2024-03-23T10:03:04;98737.19;;;8.60;40.60
65384;BME280;51986;52.788;41.368;2024-03-23T10:05:30;98726.03;;;8.52;41.17
65384;BME280;51986;52.788;41.368;2024-03-23T10:07:56;98717.56;;;8.34;41.30
65384;BME280;51986;52.788;41.368;2024-03-23T10:10:25;98734.47;;;8.33;41.00
65384;BME280;51986;52.788;41.368;2024-03-23T10:12:51;98725.25;;;8.14;41.82
65384;BME280;51986;52.788;41.368;2024-03-23T10:15:22;98702.69;;;8.17;41.76
65384;BME280;51986;52.788;41.368;2024-03-23T10:17:48;98722.25;;;8.12;41.90
65384;BME280;51986;52.788;41.368;2024-03-23T10:20:22;98705.09;;;8.00;41.89
65384;BME280;51986;52.788;41.368;2024-03-23T10:22:51;98715.16;;;8.06;41.68
65384;BME280;51986;52.788;41.368;2024-03-23T10:25:18;98707.09;;;8.27;41.50
65384;BME280;51986;52.788;41.368;2024-03-23T10:28:00;98715.50;;;8.11;41.92
65384;BME280;51986;52.788;41.368;2024-03-23T10:30:27;98698.66;;;8.09;41.99
65384;BME280;51986;52.788;41.368;2024-03-23T10:33:07;98709.09;;;8.16;41.71
65384;BME280;51986;52.788;41.368;2024-03-23T10:35:33;98695.00;;;7.95;42.14
65384;BME280;51986;52.788;41.368;2024-03-23T10:37:59;98687.50;;;8.35;41.83
65384;BME280;51986;52.788;41.368;2024-03-23T10:40:25;98686.78;;;8.31;41.57
65384;BME280;51986;52.788;41.368;2024-03-23T10:42:53;98670.25;;;8.34;41.33
65384;BME280;51986;52.788;41.368;2024-03-23T10:45:23;98709.94;;;8.02;42.51
65384;BME280;51986;52.788;41.368;2024-03-23T10:47:49;98679.53;;;8.05;42.42
65384;BME280;51986;52.788;41.368;2024-03-23T10:50:15;98704.06;;;8.32;42.28
65384;BME280;51986;52.788;41.368;2024-03-23T10:52:45;98688.81;;;8.54;42.19
65384;BME280;51986;52.788;41.368;2024-03-23T10:55:14;98687.88;;;8.37;41.88
65384;BME280;51986;52.788;41.368;2024-03-23T10:57:45;98674.66;;;8.44;41.81
65384;BME280;51986;52.788;41.368;2024-03-23T11:00:14;98650.94;;;8.14;42.17
65384;BME280;51986;52.788;41.368;2024-03-23T11:02:41;98647.66;;;8.40;42.31
65384;BME280;51986;52.788;41.368;2024-03-23T11:07:52;98662.69;;;8.40;42.26
65384;BME280;51986;52.788;41.368;2024-03-23T11:12:51;98621.50;;;8.30;42.61
65384;BME280;51986;52.788;41.368;2024-03-23T11:15:17;98650.22;;;8.10;42.75
65384;BME280;51986;52.788;41.368;2024-03-23T11:18:03;98651.28;;;8.16;42.88
65384;BME280;51986;52.788;41.368;2024-03-23T11:20:32;98630.66;;;8.14;43.63
65384;BME280;51986;52.788;41.368;2024-03-23T11:22:59;98652.44;;;8.15;43.56
65384;BME280;51986;52.788;41.368;2024-03-23T11:25:26;98659.50;;;7.77;43.80
65384;BME280;51986;52.788;41.368;2024-03-23T11:27:53;98631.13;;;7.61;45.01
65384;BME280;51986;52.788;41.368;2024-03-23T11:30:24;98646.78;;;7.75;44.47
65384;BME280;51986;52.788;41.368;2024-03-23T11:32:52;98649.13;;;7.59;44.70
65384;BME280;51986;52.788;41.368;2024-03-23T11:35:35;98642.81;;;7.97;43.79
65384;BME280;51986;52.788;41.368;2024-03-23T11:38:16;98614.13;;;7.80;44.87
65384;BME280;51986;52.788;41.368;2024-03-23T11:40:49;98648.56;;;7.85;44.69
65384;BME280;51986;52.788;41.368;2024-03-23T11:43:16;98625.88;;;7.61;45.38
65384;BME280;51986;52.788;41.368;2024-03-23T11:45:47;98643.75;;;7.80;45.17
65384;BME280;51986;52.788;41.368;2024-03-23T11:48:15;98639.69;;;7.68;45.95
65384;BME280;51986;52.788;41.368;2024-03-23T11:50:42;98625.81;;;7.68;45.52
65384;BME280;51986;52.788;41.368;2024-03-23T11:53:14;98601.34;;;7.33;45.68
65384;BME280;51986;52.788;41.368;2024-03-23T11:55:59;98581.09;;;7.37;46.75
65384;BME280;51986;52.788;41.368;2024-03-23T11:58:26;98596.13;;;7.30;46.58
65384;BME280;51986;52.788;41.368;2024-03-23T12:00:54;98602.91;;;7.27;46.94
65384;BME280;51986;52.788;41.368;2024-03-23T12:03:20;98617.81;;;7.37;46.67
65384;BME280;51986;52.788;41.368;2024-03-23T12:05:50;98579.34;;;7.16;46.89
65384;BME280;51986;52.788;41.368;2024-03-23T12:08:20;98586.09;;;7.17;47.15
65384;BME280;51986;52.788;41.368;2024-03-23T12:13:34;98586.63;;;6.87;48.70
65384;BME280;51986;52.788;41.368;2024-03-23T12:16:15;98580.97;;;6.92;48.17
65384;BME280;51986;52.788;41.368;2024-03-23T12:18:43;98567.66;;;6.62;49.61
65384;BME280;51986;52.788;41.368;2024-03-23T12:21:10;98592.44;;;6.46;49.85
65384;BME280;51986;52.788;41.368;2024-03-23T12:23:41;98610.00;;;6.50;49.67
65384;BME280;51986;52.788;41.368;2024-03-23T12:26:07;98558.84;;;6.16;50.14
65384;BME280;51986;52.788;41.368;2024-03-23T12:28:34;98598.41;;;6.47;49.92
65384;BME280;51986;52.788;41.368;2024-03-23T12:31:00;98570.63;;;6.67;48.96
65384;BME280;51986;52.788;41.368;2024-03-23T12:33:26;98576.66;;;6.54;49.68
65384;BME280;51986;52.788;41.368;2024-03-23T12:35:52;98591.59;;;6.64;49.45
65384;BME280;51986;52.788;41.368;2024-03-23T12:38:18;98586.06;;;6.40;50.10
65384;BME280;51986;52.788;41.368;2024-03-23T12:40:47;98586.16;;;6.19;50.45
65384;BME280;51986;52.788;41.368;2024-03-23T12:43:14;98575.75;;;5.98;50.97
65384;BME280;51986;52.788;41.368;2024-03-23T12:45:40;98567.06;;;6.18;50.08
65384;BME280;51986;52.788;41.368;2024-03-23T12:48:06;98568.28;;;5.85;51.79
65384;BME280;51986;52.788;41.368;2024-03-23T12:50:32;98566.72;;;6.06;50.95
65384;BME280;51986;52.788;41.368;2024-03-23T12:52:58;98570.09;;;6.10;51.06
65384;BME280;51986;52.788;41.368;2024-03-23T12:55:24;98574.88;;;6.29;50.76
65384;BME280;51986;52.788;41.368;2024-03-23T12:57:50;98547.00;;;5.62;51.76
65384;BME280;51986;52.788;41.368;2024-03-23T13:00:16;98560.06;;;5.58;52.55
65384;BME280;51986;52.788;41.368;2024-03-23T13:02:42;98563.81;;;5.57;52.31
65384;BME280;51986;52.788;41.368;2024-03-23T13:05:08;98550.34;;;5.59;52.25
65384;BME280;51986;52.788;41.368;2024-03-23T13:07:35;98550.38;;;5.55;53.02
65384;BME280;51986;52.788;41.368;2024-03-23T13:10:01;98558.59;;;5.50;53.10
65384;BME280;51986;52.788;41.368;2024-03-23T13:12:27;98571.66;;;5.61;52.76
65384;BME280;51986;52.788;41.368;2024-03-23T13:14:53;98571.28;;;5.34;53.62
65384;BME280;51986;52.788;41.368;2024-03-23T13:17:19;98564.56;;;5.22;54.62
65384;BME280;51986;52.788;41.368;2024-03-23T13:19:44;98552.59;;;5.28;54.39
65384;BME280;51986;52.788;41.368;2024-03-23T13:22:10;98573.50;;;5.03;56.07
65384;BME280;51986;52.788;41.368;2024-03-23T13:24:36;98553.31;;;4.97;56.34
65384;BME280;51986;52.788;41.368;2024-03-23T13:27:02;98576.06;;;4.78;57.04
65384;BME280;51986;52.788;41.368;2024-03-23T13:29:28;98587.69;;;4.99;57.03
65384;BME280;51986;52.788;41.368;2024-03-23T13:31:54;98549.94;;;4.82;57.56
65384;BME280;51986;52.788;41.368;2024-03-23T13:34:20;98555.19;;;4.89;58.10
65384;BME280;51986;52.788;41.368;2024-03-23T13:36:46;98542.06;;;4.64;58.58
65384;BME280;51986;52.788;41.368;2024-03-23T13:39:14;98523.44;;;4.83;58.52
65384;BME280;51986;52.788;41.368;2024-03-23T13:41:41;98558.53;;;4.89;58.01
65384;BME280;51986;52.788;41.368;2024-03-23T13:44:09;98526.38;;;4.67;59.48
65384;BME280;51986;52.788;41.368;2024-03-23T13:46:35;98518.94;;;4.66;59.40
65384;BME280;51986;52.788;41.368;2024-03-23T13:49:01;98515.25;;;4.88;58.80
65384;BME280;51986;52.788;41.368;2024-03-23T13:51:27;98506.66;;;4.84;59.07
65384;BME280;51986;52.788;41.368;2024-03-23T13:53:56;98542.84;;;4.86;59.15
65384;BME280;51986;52.788;41.368;2024-03-23T13:56:25;98546.94;;;4.76;60.11
65384;BME280;51986;52.788;41.368;2024-03-23T13:58:51;98540.63;;;4.84;59.73
65384;BME280;51986;52.788;41.368;2024-03-23T14:01:17;98543.19;;;4.70;60.17
65384;BME280;51986;52.788;41.368;2024-03-23T14:03:43;98519.63;;;4.45;60.79